LTBJ Airport Information

Runway Information
Runway 16L Length 10630 ft width 147 ft
Elevation 412 ft Threshold 0 ft Heading 167
Runway 34R Length 10630 ft Width 147 ft
Elevation 364 ft Threshold 0 ft Heading 347
Runway 16R Length 10630 ft width 147 ft
Elevation 409 ft Threshold 0 ft Heading 167
Runway 34L Length 10630 ft Width 147 ft
Elevation 366 ft Threshold 0 ft Heading 347
Airport Frequencies
Type APP Name MENDERES A Frequency 119.5 MHZ
Type APP Name MENDERES A Frequency 134.2 MHZ
Type ATIS Name MENDERES A Frequency 129.2 MHZ
Type GND Name MENDERES G Frequency 121.9 MHZ
Type RMP Name MENDERES R Frequency 121.7 MHZ
Type TWR Name MENDERES T Frequency 118.1 MHZ
Airport Navaids
Type NDB Name Menderes Frequency 315 KHZ
Type NDB Name Menderes Frequency 405 KHZ
Type TACAN Name Menderes Frequency 115100 KHZ
Type VOR-DME Name Menderes Frequency 117900 KHZ
Airport Weather Information & NOTAM
ADDS - METARS form results

(1939 UTC 15 December 2018)
Data provider http://aviationweather.gov/metar/data/
 
METAR text: LTBJ 151920Z 16004KT 9999 SCT030 BKN100 13/09 Q1017 NOSIG
Conditions at: LTBJ (IZMIR/ADNAN MEND, TR) observed 1920 UTC 15 December 2018
Temperature: 13.0°C (55°F)
Dewpoint: 9.0°C (48°F) [RH = 77%]
Pressure (altimeter): 30.03 inches Hg (1017.0 mb)
Winds: from the SSE (160 degrees) at 5 MPH (4 knots; 2.1 m/s)
Visibility: 6 or more miles (10+ km)
Ceiling: 10000 feet AGL
Clouds: scattered clouds at 3000 feet AGL
broken clouds at 10000 feet AGL
Weather: no significant weather observed at this time

METAR text: LTBJ 151850Z 00000KT 9999 SCT030 BKN100 13/09 Q1017 BECMG 16012KT
Conditions at: LTBJ (IZMIR/ADNAN MEND, TR) observed 1850 UTC 15 December 2018
Temperature: 13.0°C (55°F)
Dewpoint: 9.0°C (48°F) [RH = 77%]
Pressure (altimeter): 30.03 inches Hg (1017.0 mb)
Winds: calm
Visibility: 6 or more miles (10+ km)
Ceiling: 10000 feet AGL
Clouds: scattered clouds at 3000 feet AGL
broken clouds at 10000 feet AGL
Weather: no significant weather observed at this time

Forecast for: LTBJ (IZMIR/ADNAN MEND, TR)
Text: TAF LTBJ 151640Z 1518/1618 16012KT 8000 -SHRA SCT030 BKN100
Forecast period: 1800 UTC 15 December 2018 to 1500 UTC 16 December 2018
Forecast type: FROM: standard forecast or significant change
Winds: from the SSE (160 degrees) at 14 MPH (12 knots; 6.2 m/s)
Visibility: 5 miles (8 km)
Ceiling: 10000 feet AGL
Clouds: scattered clouds at 3000 feet AGL
broken clouds at 10000 feet AGL
Weather: -SHRA  (light rain showers)
Text: BECMG 1615/1617 VRB02KT
Forecast period: 1500 to 1800 UTC 16 December 2018
Forecast type: BECOMING: Conditions expected to become as follows by 1700 UTC 16 December 2018
Winds: variable direction winds at 2 MPH (2 knots; 1.0 m/s)
Visibility: 5 miles (8 km)
Ceiling: 10000 feet AGL
Clouds: scattered clouds at 3000 feet AGL
broken clouds at 10000 feet AGL
Weather: -SHRA  (light rain showers)